createdAt,value
2023-01-11T00:00:36.496Z,-16.76
2023-01-11T00:03:04.505Z,-16.78
2023-01-11T00:05:31.708Z,-16.81
2023-01-11T00:07:59.063Z,-16.84
2023-01-11T00:10:26.220Z,-16.87
2023-01-11T00:12:53.202Z,-16.89
2023-01-11T00:15:20.259Z,-16.92
2023-01-11T00:17:47.311Z,-16.95
2023-01-11T00:20:14.408Z,-16.97
2023-01-11T00:22:41.464Z,-16.99
2023-01-11T00:25:09.028Z,-17.01
2023-01-11T00:27:36.055Z,-17.03
2023-01-11T00:30:03.227Z,-17.04
2023-01-11T00:32:30.515Z,-17.04
2023-01-11T00:34:57.541Z,-17.04
2023-01-11T00:37:24.759Z,-17.04
2023-01-11T00:39:52.662Z,-17.04
2023-01-11T00:42:38.412Z,-17.04
2023-01-11T00:45:25.296Z,-17.05
2023-01-11T00:47:58.338Z,-17.06
2023-01-11T00:50:26.083Z,-17.05
2023-01-11T00:52:53.063Z,-17.05
2023-01-11T00:55:20.069Z,-17.05
2023-01-11T00:57:47.047Z,-17.06
2023-01-11T01:00:14.290Z,-17.06
2023-01-11T01:02:41.474Z,-17.05
2023-01-11T01:05:08.879Z,-17.05
2023-01-11T01:07:36.754Z,-17.06
2023-01-11T01:10:04.829Z,-17.06
2023-01-11T01:12:50.607Z,-17.07
2023-01-11T01:15:17.830Z,-17.08
2023-01-11T01:17:45.422Z,-17.08
2023-01-11T01:20:13.276Z,-17.08
2023-01-11T01:22:40.478Z,-17.07
2023-01-11T01:25:08.089Z,-17.08
2023-01-11T01:27:35.244Z,-17.07
2023-01-11T01:30:02.388Z,-17.07
2023-01-11T01:32:29.845Z,-17.07
2023-01-11T01:34:56.892Z,-17.07
2023-01-11T01:37:24.047Z,-17.05
2023-01-11T01:39:51.294Z,-17.04
2023-01-11T01:42:19.858Z,-17.04
2023-01-11T01:45:03.956Z,-17.04
2023-01-11T01:47:49.559Z,-17.03
2023-01-11T01:50:22.616Z,-17.04
2023-01-11T01:52:52.081Z,-17.03
2023-01-11T01:55:34.375Z,-17.03
2023-01-11T01:58:02.692Z,-17.02
2023-01-11T02:00:30.119Z,-17.02
2023-01-11T02:02:58.022Z,-17.01
2023-01-11T02:05:25.156Z,-17.01
2023-01-11T02:07:54.757Z,-17.01
2023-01-11T02:10:22.676Z,-17.00
2023-01-11T02:13:00.818Z,-16.99
2023-01-11T02:15:28.228Z,-16.98
2023-01-11T02:17:55.372Z,-16.99
2023-01-11T02:20:27.421Z,-17.00
2023-01-11T02:23:19.175Z,-17.01
2023-01-11T02:25:46.415Z,-17.00
2023-01-11T02:28:33.305Z,-17.00
2023-01-11T02:31:06.546Z,-17.01
2023-01-11T02:33:39.992Z,-17.00
2023-01-11T02:36:46.289Z,-16.98
2023-01-11T02:39:51.399Z,-16.97
2023-01-11T02:42:40.322Z,-16.97
2023-01-11T02:45:29.549Z,-16.97
2023-01-11T02:48:02.331Z,-16.97
2023-01-11T02:50:38.400Z,-16.96
2023-01-11T02:53:26.059Z,-16.96
2023-01-11T02:55:56.112Z,-16.93
2023-01-11T02:58:23.712Z,-16.91
2023-01-11T03:00:50.871Z,-16.89
2023-01-11T03:03:20.261Z,-16.89
2023-01-11T03:06:11.877Z,-16.88
2023-01-11T03:09:05.031Z,-16.88
2023-01-11T03:12:09.991Z,-16.86
2023-01-11T03:14:51.071Z,-16.82
2023-01-11T03:17:28.786Z,-16.79
2023-01-11T03:20:26.567Z,-16.78
2023-01-11T03:23:19.424Z,-16.77
2023-01-11T03:26:16.533Z,-16.73
2023-01-11T03:28:54.079Z,-16.72
2023-01-11T03:31:22.785Z,-16.69
2023-01-11T03:34:05.303Z,-16.67
2023-01-11T03:36:39.363Z,-16.66
2023-01-11T03:39:16.541Z,-16.64
2023-01-11T03:41:43.632Z,-16.63
2023-01-11T03:44:11.297Z,-16.62
2023-01-11T03:46:44.346Z,-16.61
2023-01-11T03:49:15.867Z,-16.59
2023-01-11T03:51:44.624Z,-16.58
2023-01-11T03:54:15.285Z,-16.56
2023-01-11T03:57:00.635Z,-16.54
2023-01-11T03:59:28.157Z,-16.52
2023-01-11T04:01:55.814Z,-16.50
2023-01-11T04:04:23.302Z,-16.48
2023-01-11T04:06:50.436Z,-16.47
2023-01-11T04:09:17.826Z,-16.46
2023-01-11T04:11:45.376Z,-16.45
2023-01-11T04:14:12.440Z,-16.45
2023-01-11T04:16:39.558Z,-16.45
2023-01-11T04:19:06.727Z,-16.44
2023-01-11T04:21:33.873Z,-16.42
2023-01-11T04:24:00.919Z,-16.40
2023-01-11T04:26:28.072Z,-16.38
2023-01-11T04:28:55.181Z,-16.36
2023-01-11T04:31:22.250Z,-16.33
2023-01-11T04:33:49.468Z,-16.32
2023-01-11T04:36:16.596Z,-16.33
2023-01-11T04:38:43.565Z,-16.33
2023-01-11T04:41:29.303Z,-16.32
2023-01-11T04:43:56.776Z,-16.31
2023-01-11T04:46:24.529Z,-16.31
2023-01-11T04:48:53.119Z,-16.30
2023-01-11T04:51:20.126Z,-16.26
2023-01-11T04:53:49.263Z,-16.24
2023-01-11T04:56:16.642Z,-16.22
2023-01-11T04:58:43.969Z,-16.20
2023-01-11T05:01:12.031Z,-16.18
2023-01-11T05:03:39.294Z,-16.16
2023-01-11T05:06:07.570Z,-16.16
2023-01-11T05:08:34.719Z,-16.16
2023-01-11T05:11:03.823Z,-16.15
2023-01-11T05:13:43.039Z,-16.13
2023-01-11T05:16:24.100Z,-16.11
2023-01-11T05:18:59.530Z,-16.09
2023-01-11T05:21:31.888Z,-16.07
2023-01-11T05:23:59.841Z,-16.05
2023-01-11T05:26:37.200Z,-16.02
2023-01-11T05:29:16.335Z,-15.93
2023-01-11T05:31:43.952Z,-15.77
2023-01-11T05:34:12.488Z,-15.57
2023-01-11T05:36:39.742Z,-15.33
2023-01-11T05:39:07.096Z,-15.08
2023-01-11T05:41:34.224Z,-14.82
2023-01-11T05:44:20.241Z,-14.57
2023-01-11T05:46:47.365Z,-14.29
2023-01-11T05:49:14.737Z,-14.05
2023-01-11T05:51:42.548Z,-13.81
2023-01-11T05:54:11.882Z,-13.60
2023-01-11T05:56:39.358Z,-13.38
2023-01-11T05:59:07.415Z,-13.21
2023-01-11T06:01:34.978Z,-13.06
2023-01-11T06:04:02.014Z,-12.89
2023-01-11T06:06:29.083Z,-12.71
2023-01-11T06:08:56.316Z,-12.57
2023-01-11T06:11:23.362Z,-12.44
2023-01-11T06:13:50.412Z,-12.37
2023-01-11T06:16:19.303Z,-12.28
2023-01-11T06:18:48.010Z,-12.20
2023-01-11T06:21:15.554Z,-12.13
2023-01-11T06:23:45.292Z,-12.01
2023-01-11T06:26:15.302Z,-11.89
2023-01-11T06:28:42.746Z,-11.77
2023-01-11T06:31:09.845Z,-11.64
2023-01-11T06:34:24.251Z,-11.43
2023-01-11T06:36:51.286Z,-11.24
2023-01-11T06:39:18.980Z,-11.09
2023-01-11T06:41:46.094Z,-11.05
2023-01-11T06:44:13.252Z,-11.00
2023-01-11T06:46:40.301Z,-10.89
2023-01-11T06:49:07.548Z,-10.79
2023-01-11T06:51:34.608Z,-10.74
2023-01-11T06:54:01.744Z,-10.72
2023-01-11T06:56:28.795Z,-10.70
2023-01-11T06:58:55.956Z,-10.68
2023-01-11T07:01:24.920Z,-10.59
2023-01-11T07:03:52.462Z,-10.56
2023-01-11T07:06:19.651Z,-10.50
2023-01-11T07:08:47.014Z,-10.35
2023-01-11T07:11:14.160Z,-10.23
2023-01-11T07:13:41.353Z,-10.13
2023-01-11T07:16:08.522Z,-10.03
2023-01-11T07:18:35.812Z,-9.78
2023-01-11T07:21:02.880Z,-9.55
2023-01-11T07:23:29.909Z,-9.39
2023-01-11T07:25:57.887Z,-9.28
2023-01-11T07:28:25.036Z,-9.21
2023-01-11T07:30:58.810Z,-9.13
2023-01-11T07:33:27.201Z,-9.13
2023-01-11T07:35:54.403Z,-9.20
2023-01-11T07:38:21.618Z,-9.20
2023-01-11T07:40:49.181Z,-9.14
2023-01-11T07:43:18.531Z,-9.09
2023-01-11T07:45:49.450Z,-8.95
2023-01-11T07:48:25.281Z,-8.88
2023-01-11T07:50:53.141Z,-8.85
2023-01-11T07:53:20.505Z,-8.81
2023-01-11T07:55:47.662Z,-8.77
2023-01-11T07:58:14.820Z,-8.79
2023-01-11T08:00:42.034Z,-8.84
2023-01-11T08:03:09.570Z,-8.80
2023-01-11T08:05:36.865Z,-8.71
2023-01-11T08:08:04.639Z,-8.65
2023-01-11T08:10:31.711Z,-8.50
2023-01-11T08:13:17.868Z,-8.41
2023-01-11T08:15:45.205Z,-8.38
2023-01-11T08:18:12.596Z,-8.33
2023-01-11T08:20:40.088Z,-8.37
2023-01-11T08:23:09.245Z,-8.36
2023-01-11T08:25:36.360Z,-8.33
2023-01-11T08:28:04.650Z,-8.36
2023-01-11T08:30:32.457Z,-8.38
2023-01-11T08:33:01.372Z,-8.35
2023-01-11T08:35:28.559Z,-8.37
2023-01-11T08:37:55.581Z,-8.38
2023-01-11T08:40:24.186Z,-8.31
2023-01-11T08:42:57.899Z,-8.19
2023-01-11T08:45:25.702Z,-8.13
2023-01-11T08:47:53.846Z,-8.14
2023-01-11T08:50:22.217Z,-8.03
2023-01-11T08:52:51.010Z,-7.96
2023-01-11T08:55:19.216Z,-7.92
2023-01-11T08:57:46.894Z,-7.82
2023-01-11T09:00:14.935Z,-7.75
2023-01-11T09:02:42.087Z,-7.78
2023-01-11T09:05:09.828Z,-7.77
2023-01-11T09:07:37.109Z,-7.73
2023-01-11T09:10:05.177Z,-7.64
2023-01-11T09:12:32.966Z,-7.52
2023-01-11T09:15:00.368Z,-7.46
2023-01-11T09:17:27.634Z,-7.50
2023-01-11T09:19:55.409Z,-7.49
2023-01-11T09:22:22.462Z,-7.47
2023-01-11T09:24:49.682Z,-7.42
2023-01-11T09:27:17.002Z,-7.29
2023-01-11T09:29:44.075Z,-7.24
2023-01-11T09:32:11.067Z,-7.12
2023-01-11T09:34:39.458Z,-7.04
2023-01-11T09:37:07.334Z,-7.08
2023-01-11T09:39:35.423Z,-7.08
2023-01-11T09:42:22.149Z,-7.11
2023-01-11T09:44:51.046Z,-7.08
2023-01-11T09:47:20.551Z,-7.03
2023-01-11T09:49:52.525Z,-6.96
2023-01-11T09:52:19.660Z,-7.00
2023-01-11T09:54:47.578Z,-6.95
2023-01-11T09:57:37.685Z,-6.75
2023-01-11T10:00:12.750Z,-6.61
2023-01-11T10:03:12.455Z,-6.58
2023-01-11T10:05:50.299Z,-6.59
2023-01-11T10:18:26.288Z,-6.71
2023-01-11T10:18:26.562Z,-6.69
2023-01-11T10:20:35.490Z,-6.55
2023-01-11T10:23:06.577Z,-6.39
2023-01-11T10:25:41.646Z,-6.27
2023-01-11T10:28:27.858Z,-6.29
2023-01-11T10:30:58.959Z,-6.38
2023-01-11T10:33:54.973Z,-6.42
2023-01-11T10:37:13.475Z,-6.57
2023-01-11T10:40:26.773Z,-6.64
2023-01-11T10:43:03.486Z,-6.60
2023-01-11T10:45:51.265Z,-6.57
2023-01-11T10:48:25.526Z,-6.62
2023-01-11T10:51:28.122Z,-6.69
2023-01-11T10:53:59.738Z,-6.75
2023-01-11T10:56:42.915Z,-6.78
2023-01-11T10:59:27.085Z,-6.77
2023-01-11T11:02:34.448Z,-6.71
2023-01-11T11:05:05.649Z,-6.67
2023-01-11T11:08:06.971Z,-6.66
2023-01-11T11:10:43.654Z,-6.62
2023-01-11T11:13:16.794Z,-6.63
2023-01-11T11:16:23.924Z,-6.72
2023-01-11T11:18:55.820Z,-6.78
2023-01-11T11:21:29.828Z,-6.81
2023-01-11T11:24:03.501Z,-6.84
2023-01-11T11:26:38.817Z,-6.86
2023-01-11T11:29:10.421Z,-6.90
2023-01-11T11:31:38.705Z,-6.91
2023-01-11T11:34:13.810Z,-6.93
2023-01-11T11:36:53.961Z,-6.99
2023-01-11T11:39:30.906Z,-7.04
2023-01-11T11:42:08.452Z,-7.05
2023-01-11T11:44:35.751Z,-7.00
2023-01-11T11:47:03.970Z,-6.98
2023-01-11T11:49:32.584Z,-7.03
2023-01-11T11:52:00.729Z,-7.10
2023-01-11T11:54:32.649Z,-7.20
2023-01-11T11:57:12.150Z,-7.28
2023-01-11T11:59:39.281Z,-7.29
2023-01-11T12:02:06.481Z,-7.24
2023-01-11T12:04:47.538Z,-7.16
2023-01-11T12:07:16.503Z,-7.15
2023-01-11T12:09:55.787Z,-7.20
2023-01-11T12:12:26.402Z,-7.25
2023-01-11T12:15:15.763Z,-7.25
2023-01-11T12:17:43.188Z,-7.26
2023-01-11T12:20:19.489Z,-7.27
2023-01-11T12:22:46.518Z,-7.30
2023-01-11T12:25:25.827Z,-7.32
2023-01-11T12:28:01.846Z,-7.33
2023-01-11T12:30:41.937Z,-7.39
2023-01-11T12:33:12.776Z,-7.47
2023-01-11T12:36:03.222Z,-7.49
2023-01-11T12:38:38.104Z,-7.48
2023-01-11T12:41:11.385Z,-7.53
2023-01-11T12:44:31.384Z,-7.62
2023-01-11T12:47:05.714Z,-7.66
2023-01-11T12:49:42.071Z,-7.70
2023-01-11T12:52:31.136Z,-7.74
2023-01-11T12:55:02.402Z,-7.78
2023-01-11T12:58:02.152Z,-7.79
2023-01-11T13:01:07.411Z,-7.86
2023-01-11T13:03:35.107Z,-7.96
2023-01-11T13:06:44.542Z,-8.02
2023-01-11T13:09:44.051Z,-8.10
2023-01-11T13:12:21.889Z,-8.19
2023-01-11T13:15:14.209Z,-8.28
2023-01-11T13:17:59.857Z,-8.36
2023-01-11T13:20:30.916Z,-8.41
2023-01-11T13:23:10.513Z,-8.45
2023-01-11T13:25:39.670Z,-8.53
2023-01-11T13:28:23.963Z,-8.61
2023-01-11T13:30:51.570Z,-8.70
2023-01-11T13:33:23.151Z,-8.79
2023-01-11T13:35:56.974Z,-8.88
2023-01-11T13:38:23.976Z,-8.96
2023-01-11T13:40:53.381Z,-9.03
2023-01-11T13:43:33.842Z,-9.09
2023-01-11T13:46:05.942Z,-9.16
2023-01-11T13:48:51.535Z,-9.23
2023-01-11T13:51:21.644Z,-9.30
2023-01-11T13:53:53.728Z,-9.36
2023-01-11T13:56:24.943Z,-9.42
2023-01-11T13:59:04.378Z,-9.49
2023-01-11T14:02:30.412Z,-9.56
2023-01-11T14:05:18.409Z,-9.64
2023-01-11T14:07:48.658Z,-9.71
2023-01-11T14:10:27.891Z,-9.77
2023-01-11T14:12:59.257Z,-9.82
2023-01-11T14:15:40.754Z,-9.87
2023-01-11T14:18:13.448Z,-9.94
2023-01-11T14:20:48.739Z,-9.98
2023-01-11T14:23:20.044Z,-10.05
2023-01-11T14:26:09.260Z,-10.11
2023-01-11T14:28:46.446Z,-10.15
2023-01-11T14:31:35.783Z,-10.18
2023-01-11T14:34:15.489Z,-10.22
2023-01-11T14:37:04.924Z,-10.25
2023-01-11T14:39:44.978Z,-10.30
2023-01-11T14:42:31.169Z,-10.33
2023-01-11T14:45:30.790Z,-10.37
2023-01-11T14:47:59.918Z,-10.41
2023-01-11T14:50:48.981Z,-10.42
2023-01-11T14:53:26.802Z,-10.46
2023-01-11T14:55:54.048Z,-10.50
2023-01-11T14:58:28.785Z,-10.53
2023-01-11T15:00:56.182Z,-10.57
2023-01-11T15:03:23.239Z,-10.61
2023-01-11T15:06:10.450Z,-10.64
2023-01-11T15:08:51.544Z,-10.64
2023-01-11T15:11:25.845Z,-10.62
2023-01-11T15:13:58.116Z,-10.59
2023-01-11T15:16:43.910Z,-10.56
2023-01-11T15:19:13.304Z,-10.53
2023-01-11T15:21:41.907Z,-10.51
2023-01-11T15:24:29.841Z,-10.49
2023-01-11T15:26:58.569Z,-10.47
2023-01-11T15:29:31.510Z,-10.47
2023-01-11T15:32:02.107Z,-10.45
2023-01-11T15:34:40.236Z,-10.45
2023-01-11T15:37:45.477Z,-10.47
2023-01-11T15:40:18.241Z,-10.48
2023-01-11T15:43:05.492Z,-10.47
2023-01-11T15:45:59.574Z,-10.47
2023-01-11T15:48:30.603Z,-10.45
2023-01-11T15:51:42.814Z,-10.45
2023-01-11T15:54:31.739Z,-10.46
2023-01-11T15:57:04.795Z,-10.44
2023-01-11T15:59:50.273Z,-10.43
2023-01-11T16:02:52.443Z,-10.41
2023-01-11T16:05:25.106Z,-10.39
2023-01-11T16:08:23.366Z,-10.37
2023-01-11T16:11:16.666Z,-10.35
2023-01-11T16:14:07.128Z,-10.32
2023-01-11T16:16:40.457Z,-10.28
2023-01-11T16:19:20.258Z,-10.26
2023-01-11T16:21:52.460Z,-10.24
2023-01-11T16:24:21.428Z,-10.23
2023-01-11T16:27:00.289Z,-10.21
2023-01-11T16:29:30.681Z,-10.20
2023-01-11T16:31:59.774Z,-10.18
2023-01-11T16:34:38.283Z,-10.16
2023-01-11T16:37:20.938Z,-10.13
2023-01-11T16:39:49.423Z,-10.09
2023-01-11T16:42:16.540Z,-10.03
2023-01-11T16:44:53.485Z,-9.99
2023-01-11T16:47:21.499Z,-9.95
2023-01-11T16:49:50.277Z,-9.90
2023-01-11T16:52:34.913Z,-9.86
2023-01-11T16:55:02.427Z,-9.80
2023-01-11T16:57:36.155Z,-9.75
2023-01-11T17:00:08.325Z,-9.71
2023-01-11T17:02:40.429Z,-9.68
2023-01-11T17:05:22.735Z,-9.65
2023-01-11T17:07:49.991Z,-9.61
2023-01-11T17:10:23.241Z,-9.56
2023-01-11T17:13:08.147Z,-9.52
2023-01-11T17:15:43.808Z,-9.47
2023-01-11T17:18:10.898Z,-9.44
2023-01-11T17:20:37.992Z,-9.41
2023-01-11T17:23:05.084Z,-9.39
2023-01-11T17:25:43.821Z,-9.36
2023-01-11T17:28:16.829Z,-9.33
2023-01-11T17:30:45.552Z,-9.28
2023-01-11T17:33:26.240Z,-9.25
2023-01-11T17:35:53.661Z,-9.23
2023-01-11T17:38:22.301Z,-9.20
2023-01-11T17:40:49.393Z,-9.16
2023-01-11T17:43:43.133Z,-9.12
2023-01-11T17:46:17.155Z,-9.09
2023-01-11T17:48:58.079Z,-9.06
2023-01-11T17:51:26.690Z,-9.02
2023-01-11T17:53:53.792Z,-9.00
2023-01-11T17:56:54.653Z,-8.97
2023-01-11T17:59:26.425Z,-8.95
2023-01-11T18:01:54.919Z,-8.93
2023-01-11T18:04:22.737Z,-8.91
2023-01-11T18:06:51.165Z,-8.88
2023-01-11T18:09:22.700Z,-8.88
2023-01-11T18:11:49.952Z,-8.90
2023-01-11T18:14:28.063Z,-8.91
2023-01-11T18:17:07.439Z,-8.93
2023-01-11T18:19:42.615Z,-8.93
2023-01-11T18:22:25.107Z,-8.95
2023-01-11T18:24:56.425Z,-8.95
2023-01-11T18:27:28.365Z,-8.97
2023-01-11T18:29:57.206Z,-8.98
2023-01-11T18:32:24.676Z,-9.00
2023-01-11T18:34:53.057Z,-9.02
2023-01-11T18:37:20.752Z,-9.04
2023-01-11T18:39:47.878Z,-9.07
2023-01-11T18:42:17.358Z,-9.09
2023-01-11T18:44:47.172Z,-9.10
2023-01-11T18:47:19.521Z,-9.11
2023-01-11T18:49:47.078Z,-9.13
2023-01-11T18:52:14.603Z,-9.13
2023-01-11T18:54:42.123Z,-9.13
2023-01-11T18:57:09.326Z,-9.13
2023-01-11T18:59:37.036Z,-9.15
2023-01-11T19:02:16.648Z,-9.17
2023-01-11T19:04:44.243Z,-9.19
2023-01-11T19:07:11.602Z,-9.21
2023-01-11T19:09:39.074Z,-9.22
2023-01-11T19:12:06.505Z,-9.24
2023-01-11T19:14:33.762Z,-9.26
2023-01-11T19:17:01.009Z,-9.27
2023-01-11T19:19:28.058Z,-9.28
2023-01-11T19:21:55.616Z,-9.28
2023-01-11T19:24:22.772Z,-9.27
2023-01-11T19:26:50.244Z,-9.28
2023-01-11T19:29:19.322Z,-9.28
2023-01-11T19:31:48.507Z,-9.31
2023-01-11T19:34:16.011Z,-9.32
2023-01-11T19:36:43.137Z,-9.34
2023-01-11T19:39:10.808Z,-9.34
2023-01-11T19:41:56.682Z,-9.34
2023-01-11T19:44:32.274Z,-9.35
2023-01-11T19:47:11.045Z,-9.38
2023-01-11T19:49:39.754Z,-9.40
2023-01-11T19:52:13.422Z,-9.40
2023-01-11T19:54:42.409Z,-9.42
2023-01-11T19:57:11.671Z,-9.44
2023-01-11T19:59:39.212Z,-9.46
2023-01-11T20:02:06.645Z,-9.47
2023-01-11T20:04:33.893Z,-9.47
2023-01-11T20:07:00.959Z,-9.48
2023-01-11T20:09:28.303Z,-9.50
2023-01-11T20:11:55.939Z,-9.50
2023-01-11T20:14:23.324Z,-9.50
2023-01-11T20:16:50.568Z,-9.49
2023-01-11T20:19:17.800Z,-9.51
2023-01-11T20:21:44.970Z,-9.52
2023-01-11T20:24:13.043Z,-9.52
2023-01-11T20:26:40.551Z,-9.53
2023-01-11T20:29:07.751Z,-9.53
2023-01-11T20:31:35.813Z,-9.52
2023-01-11T20:34:10.071Z,-9.53
2023-01-11T20:36:37.497Z,-9.55
2023-01-11T20:39:04.685Z,-9.59
2023-01-11T20:41:51.072Z,-9.62
2023-01-11T20:44:24.046Z,-9.64
2023-01-11T20:46:51.825Z,-9.66
2023-01-11T20:49:19.276Z,-9.68
2023-01-11T20:51:46.749Z,-9.70
2023-01-11T20:54:13.890Z,-9.73
2023-01-11T20:56:41.935Z,-9.74
2023-01-11T21:01:37.582Z,-9.75
2023-01-11T21:04:06.818Z,-9.75
2023-01-11T21:06:34.753Z,-9.76
2023-01-11T21:09:02.244Z,-9.77
2023-01-11T21:11:31.422Z,-9.79
2023-01-11T21:14:01.850Z,-9.80
2023-01-11T21:16:29.380Z,-9.84
2023-01-11T21:18:58.442Z,-9.87
2023-01-11T21:21:26.011Z,-9.90
2023-01-11T21:23:57.497Z,-9.93
2023-01-11T21:26:24.944Z,-9.95
2023-01-11T21:28:53.920Z,-9.96
2023-01-11T21:31:21.554Z,-9.96
2023-01-11T21:33:49.359Z,-9.97
2023-01-11T21:36:18.398Z,-9.98
2023-01-11T21:38:45.511Z,-9.99
2023-01-11T21:41:14.609Z,-10.01
2023-01-11T21:43:45.242Z,-10.03
2023-01-11T21:46:12.708Z,-10.05
2023-01-11T21:48:39.862Z,-10.07
2023-01-11T21:51:10.204Z,-10.08
2023-01-11T21:53:37.348Z,-10.08
2023-01-11T21:56:05.587Z,-10.09
2023-01-11T21:58:33.250Z,-10.09
2023-01-11T22:01:00.568Z,-10.09
2023-01-11T22:03:28.454Z,-10.11
2023-01-11T22:06:02.322Z,-10.13
2023-01-11T22:08:29.580Z,-10.13
2023-01-11T22:10:58.547Z,-10.12
2023-01-11T22:13:28.225Z,-10.12
2023-01-11T22:15:57.210Z,-10.12
2023-01-11T22:18:24.272Z,-10.11
2023-01-11T22:20:51.487Z,-10.11
2023-01-11T22:23:18.568Z,-10.10
2023-01-11T22:25:45.616Z,-10.08
2023-01-11T22:28:12.770Z,-10.05
2023-01-11T22:30:39.811Z,-10.03
2023-01-11T22:33:07.974Z,-10.06
2023-01-11T22:35:35.137Z,-10.10
2023-01-11T22:38:02.288Z,-10.17
2023-01-11T22:40:29.269Z,-10.22
2023-01-11T22:42:56.771Z,-10.25
2023-01-11T22:45:23.940Z,-10.28
2023-01-11T22:47:51.097Z,-10.30
2023-01-11T22:50:18.332Z,-10.31
2023-01-11T22:52:45.781Z,-10.33
2023-01-11T22:55:12.829Z,-10.36
2023-01-11T22:57:40.001Z,-10.38
2023-01-11T23:00:08.584Z,-10.41
2023-01-11T23:02:35.633Z,-10.44
2023-01-11T23:05:02.736Z,-10.46
2023-01-11T23:07:29.832Z,-10.47
2023-01-11T23:09:56.984Z,-10.49
2023-01-11T23:12:42.698Z,-10.49
2023-01-11T23:15:10.464Z,-10.50
2023-01-11T23:17:37.506Z,-10.52
2023-01-11T23:20:05.064Z,-10.52
2023-01-11T23:22:32.192Z,-10.53
2023-01-11T23:24:59.261Z,-10.54
2023-01-11T23:27:26.302Z,-10.55
2023-01-11T23:29:53.351Z,-10.56
2023-01-11T23:32:20.376Z,-10.56
2023-01-11T23:34:47.633Z,-10.55
2023-01-11T23:37:14.780Z,-10.55
2023-01-11T23:39:41.831Z,-10.54
2023-01-11T23:42:27.732Z,-10.53
2023-01-11T23:44:55.258Z,-10.55
2023-01-11T23:47:25.580Z,-10.55
2023-01-11T23:49:54.396Z,-10.55
2023-01-11T23:52:23.501Z,-10.53
2023-01-11T23:54:50.897Z,-10.52
2023-01-11T23:57:18.762Z,-10.51
2023-01-11T23:59:45.857Z,-10.50
